createdAt,value
2019-02-22T00:04:50.667Z,12.53
2019-02-22T00:09:53.351Z,12.48
2019-02-22T00:14:56.023Z,12.40
2019-02-22T00:19:58.721Z,12.45
2019-02-22T00:25:01.424Z,12.52
2019-02-22T00:30:04.330Z,12.47
2019-02-22T00:35:07.356Z,12.48
2019-02-22T00:40:10.082Z,12.51
2019-02-22T00:45:12.785Z,12.50
2019-02-22T00:50:15.483Z,12.49
2019-02-22T00:55:18.206Z,12.44
2019-02-22T01:00:20.877Z,12.49
2019-02-22T01:05:23.575Z,12.45
2019-02-22T01:10:31.100Z,12.45
2019-02-22T01:15:30.852Z,12.45
2019-02-22T01:20:33.553Z,12.39
2019-02-22T01:25:36.267Z,12.41
2019-02-22T01:30:38.927Z,12.41
2019-02-22T01:35:41.620Z,12.49
2019-02-22T01:40:44.349Z,12.49
2019-02-22T01:45:47.087Z,12.40
2019-02-22T01:50:49.781Z,12.40
2019-02-22T01:55:52.471Z,12.53
2019-02-22T02:00:55.162Z,12.52
2019-02-22T02:05:57.833Z,12.60
2019-02-22T02:11:00.536Z,12.57
2019-02-22T02:16:03.232Z,12.54
2019-02-22T02:21:05.922Z,12.53
2019-02-22T02:26:08.602Z,12.51
2019-02-22T02:31:11.266Z,12.42
2019-02-22T02:36:13.946Z,12.46
2019-02-22T02:41:16.615Z,12.44
2019-02-22T02:46:19.299Z,12.52
2019-02-22T02:51:21.993Z,12.49
2019-02-22T02:56:24.672Z,12.49
2019-02-22T03:01:27.351Z,12.46
2019-02-22T03:06:52.238Z,12.55
2019-02-22T03:11:54.905Z,12.55
2019-02-22T03:16:57.608Z,12.48
2019-02-22T03:22:00.306Z,12.48
2019-02-22T03:27:03.028Z,12.49
2019-02-22T03:32:05.746Z,12.52
2019-02-22T03:37:08.432Z,12.47
2019-02-22T03:42:11.114Z,12.48
2019-02-22T03:47:13.805Z,12.50
2019-02-22T03:52:35.477Z,12.55
2019-02-22T03:57:38.205Z,12.56
2019-02-22T04:02:40.919Z,12.54
2019-02-22T04:07:43.593Z,12.55
2019-02-22T04:12:46.314Z,12.59
2019-02-22T04:17:49.033Z,12.61
2019-02-22T04:22:52.152Z,12.57
2019-02-22T04:27:54.894Z,12.61
2019-02-22T04:32:57.585Z,12.52
2019-02-22T04:38:00.291Z,12.51
2019-02-22T04:43:03.148Z,12.56
2019-02-22T04:48:05.880Z,12.66
2019-02-22T04:53:08.638Z,12.67
2019-02-22T04:58:14.303Z,12.64
2019-02-22T05:03:19.238Z,12.63
2019-02-22T05:08:23.359Z,12.62
2019-02-22T05:13:26.208Z,12.57
2019-02-22T05:18:28.992Z,12.51
2019-02-22T05:23:33.433Z,12.50
2019-02-22T05:28:37.180Z,12.54
2019-02-22T05:33:41.172Z,12.57
2019-02-22T05:38:45.564Z,12.55
2019-02-22T05:43:50.149Z,12.51
2019-02-22T05:48:54.651Z,12.52
2019-02-22T05:53:58.469Z,12.39
2019-02-22T05:59:02.438Z,12.39
2019-02-22T06:04:06.861Z,12.43
2019-02-22T06:09:11.196Z,12.38
2019-02-22T06:14:15.522Z,12.38
2019-02-22T06:19:19.405Z,12.32
2019-02-22T06:24:23.490Z,12.34
2019-02-22T06:29:28.223Z,12.35
2019-02-22T06:34:32.344Z,12.31
2019-02-22T06:39:35.866Z,12.32
2019-02-22T06:44:39.888Z,12.35
2019-02-22T06:49:44.576Z,12.32
2019-02-22T06:54:48.859Z,12.26
2019-02-22T06:59:54.431Z,12.26
2019-02-22T07:04:58.606Z,12.19
2019-02-22T07:10:02.908Z,12.15
2019-02-22T07:15:06.952Z,12.08
2019-02-22T07:20:11.320Z,12.00
2019-02-22T07:25:14.803Z,11.91
2019-02-22T07:30:18.459Z,11.81
2019-02-22T07:35:22.070Z,11.56
2019-02-22T07:40:26.188Z,11.42
2019-02-22T07:45:29.974Z,11.38
2019-02-22T07:50:33.842Z,11.52
2019-02-22T07:55:37.559Z,11.70
2019-02-22T08:00:41.204Z,11.86
2019-02-22T08:05:44.660Z,11.87
2019-02-22T08:10:48.339Z,12.04
2019-02-22T08:15:51.659Z,12.13
2019-02-22T08:20:55.547Z,12.08
2019-02-22T08:25:58.943Z,12.08
2019-02-22T08:31:02.352Z,12.06
2019-02-22T08:36:07.635Z,12.03
2019-02-22T08:41:11.222Z,12.02
2019-02-22T08:46:15.518Z,12.25
2019-02-22T08:51:19.254Z,12.37
2019-02-22T08:56:23.150Z,12.49
2019-02-22T09:01:27.209Z,12.71
2019-02-22T09:06:30.794Z,12.79
2019-02-22T09:11:34.891Z,12.74
2019-02-22T09:16:38.879Z,12.92
2019-02-22T09:21:42.394Z,13.04
2019-02-22T09:26:46.101Z,12.95
2019-02-22T09:31:49.851Z,12.70
2019-02-22T09:36:54.130Z,12.83
2019-02-22T09:41:58.617Z,13.06
2019-02-22T09:47:02.091Z,13.14
2019-02-22T09:52:06.094Z,13.36
2019-02-22T09:57:09.801Z,13.16
2019-02-22T10:02:13.669Z,13.13
2019-02-22T10:07:17.139Z,13.13
2019-02-22T10:12:21.504Z,13.11
2019-02-22T10:17:25.430Z,13.01
2019-02-22T10:22:29.532Z,12.68
2019-02-22T10:27:32.902Z,12.59
2019-02-22T10:32:36.720Z,12.57
2019-02-22T10:37:40.044Z,12.53
2019-02-22T10:42:42.803Z,12.36
2019-02-22T10:47:45.695Z,12.26
2019-02-22T10:52:49.624Z,12.10
2019-02-22T10:57:53.914Z,12.33
2019-02-22T11:02:57.242Z,12.40
2019-02-22T11:08:01.234Z,12.21
2019-02-22T11:13:05.358Z,12.29
2019-02-22T11:18:09.553Z,12.42
2019-02-22T11:23:12.996Z,12.49
2019-02-22T11:28:18.675Z,12.37
2019-02-22T11:33:22.092Z,12.44
2019-02-22T11:38:26.175Z,12.37
2019-02-22T11:43:30.176Z,12.83
2019-02-22T11:48:34.367Z,13.01
2019-02-22T11:53:38.190Z,13.00
2019-02-22T12:04:15.891Z,12.74
2019-02-22T12:09:19.649Z,12.47
2019-02-22T12:14:27.066Z,12.57
2019-02-22T12:19:31.311Z,12.30
2019-02-22T12:24:35.104Z,12.42
2019-02-22T12:29:38.750Z,12.54
2019-02-22T12:34:42.695Z,12.39
2019-02-22T12:39:45.760Z,12.58
2019-02-22T12:44:49.863Z,12.64
2019-02-22T12:49:53.610Z,12.72
2019-02-22T12:55:00.977Z,12.54
2019-02-22T13:00:06.943Z,12.87
2019-02-22T13:05:13.936Z,12.92
2019-02-22T13:10:17.632Z,12.68
2019-02-22T13:15:20.854Z,12.22
2019-02-22T13:20:24.520Z,12.12
2019-02-22T13:25:28.296Z,11.85
2019-02-22T13:30:32.061Z,11.72
2019-02-22T13:35:35.922Z,11.44
2019-02-22T13:40:40.212Z,11.55
2019-02-22T13:45:43.950Z,11.48
2019-02-22T13:50:48.058Z,11.24
2019-02-22T13:55:51.861Z,11.26
2019-02-22T14:00:55.476Z,11.01
2019-02-22T14:05:59.435Z,11.21
2019-02-22T14:11:24.276Z,11.01
2019-02-22T14:16:28.129Z,11.01
2019-02-22T14:21:32.078Z,11.19
2019-02-22T14:26:36.372Z,11.34
2019-02-22T14:36:56.863Z,11.03
2019-02-22T14:42:00.314Z,11.12
2019-02-22T14:47:04.625Z,11.11
2019-02-22T14:52:08.410Z,10.95
2019-02-22T14:57:13.214Z,10.92
2019-02-22T15:02:17.014Z,10.94
2019-02-22T15:07:19.789Z,10.93
2019-02-22T15:12:22.480Z,10.62
2019-02-22T15:17:28.578Z,10.52
2019-02-22T15:22:37.539Z,10.45
2019-02-22T15:27:48.519Z,10.10
2019-02-22T15:33:05.658Z,10.28
2019-02-22T15:38:28.869Z,10.07
2019-02-22T15:43:39.247Z,9.94
2019-02-22T15:48:42.572Z,9.92
2019-02-22T15:53:45.351Z,9.92
2019-02-22T15:59:05.024Z,9.86
2019-02-22T16:04:52.632Z,9.56
2019-02-22T16:09:56.298Z,9.32
2019-02-22T16:14:59.129Z,9.20
2019-02-22T16:20:08.578Z,9.13
2019-02-22T16:25:19.501Z,8.94
2019-02-22T16:30:25.915Z,8.73
2019-02-22T16:35:30.134Z,8.61
2019-02-22T16:40:32.914Z,8.31
2019-02-22T16:45:35.625Z,8.11
2019-02-22T16:50:38.504Z,8.06
2019-02-22T16:55:41.227Z,7.97
2019-02-22T17:00:43.927Z,8.02
2019-02-22T17:05:48.580Z,7.87
2019-02-22T17:10:54.645Z,7.82
2019-02-22T17:16:09.043Z,7.82
2019-02-22T17:21:11.886Z,7.78
2019-02-22T17:26:15.711Z,7.61
2019-02-22T17:31:18.538Z,7.57
2019-02-22T17:36:26.763Z,7.41
2019-02-22T17:41:25.852Z,7.35
2019-02-22T17:46:28.758Z,7.58
2019-02-22T17:51:40.889Z,7.43
2019-02-22T17:56:54.675Z,7.47
2019-02-22T18:02:10.729Z,7.53
2019-02-22T18:07:18.430Z,7.60
2019-02-22T18:12:27.655Z,7.71
2019-02-22T18:17:37.879Z,7.84
2019-02-22T18:22:41.435Z,7.85
2019-02-22T18:27:47.483Z,7.96
2019-02-22T18:32:50.292Z,7.92
2019-02-22T18:37:53.013Z,7.87
2019-02-22T18:43:07.886Z,7.79
2019-02-22T18:48:11.629Z,7.74
2019-02-22T18:53:24.070Z,7.73
2019-02-22T18:58:32.017Z,7.75
2019-02-22T19:03:38.292Z,7.64
2019-02-22T19:08:54.599Z,7.72
2019-02-22T19:14:10.612Z,7.82
2019-02-22T19:19:14.553Z,7.89
2019-02-22T19:24:17.508Z,7.77
2019-02-22T19:29:20.220Z,7.81
2019-02-22T19:34:22.946Z,7.77
2019-02-22T19:39:25.729Z,7.44
2019-02-22T19:44:28.448Z,7.34
2019-02-22T19:49:31.526Z,7.45
2019-02-22T19:54:34.327Z,7.64
2019-02-22T19:59:37.053Z,7.65
2019-02-22T20:04:39.770Z,7.35
2019-02-22T20:09:46.044Z,7.27
2019-02-22T20:14:57.717Z,7.53
2019-02-22T20:20:00.605Z,7.64
2019-02-22T20:25:04.540Z,7.50
2019-02-22T20:30:14.657Z,7.63
2019-02-22T20:35:22.078Z,7.49
2019-02-22T20:40:24.787Z,7.17
2019-02-22T20:45:27.493Z,7.12
2019-02-22T20:50:30.595Z,7.00
2019-02-22T20:55:33.297Z,6.88
2019-02-22T21:00:35.996Z,6.78
2019-02-22T21:05:38.680Z,6.80
2019-02-22T21:10:41.387Z,6.77
2019-02-22T21:15:44.320Z,6.68
2019-02-22T21:20:47.101Z,6.56
2019-02-22T21:25:49.838Z,6.44
2019-02-22T21:30:52.531Z,6.42
2019-02-22T21:35:55.247Z,6.39
2019-02-22T21:40:57.943Z,6.36
2019-02-22T21:46:00.650Z,6.30
2019-02-22T21:51:03.343Z,6.26
2019-02-22T21:56:06.062Z,6.17
2019-02-22T22:01:08.736Z,6.16
2019-02-22T22:06:11.412Z,6.34
2019-02-22T22:11:14.209Z,6.40
2019-02-22T22:16:16.912Z,6.41
2019-02-22T22:21:19.620Z,6.62
2019-02-22T22:26:22.357Z,6.79
2019-02-22T22:31:25.055Z,6.88
2019-02-22T22:36:27.724Z,6.87
2019-02-22T22:41:30.517Z,6.88
2019-02-22T22:46:36.787Z,7.06
2019-02-22T22:51:37.859Z,7.11
2019-02-22T22:56:40.560Z,7.05
2019-02-22T23:01:43.254Z,7.08
2019-02-22T23:06:45.962Z,7.32
2019-02-22T23:11:48.634Z,7.44
2019-02-22T23:16:51.441Z,7.19
2019-02-22T23:21:54.320Z,7.10
2019-02-22T23:26:57.024Z,7.10
2019-02-22T23:31:59.724Z,6.99
2019-02-22T23:37:02.428Z,7.18
2019-02-22T23:42:05.117Z,7.09
2019-02-22T23:47:19.311Z,7.06
2019-02-22T23:52:22.446Z,6.98
2019-02-22T23:57:25.140Z,6.99
